Terminal Aerodrome Forecast
Issued by NWS Green Bay, WI

Home | Current Version | Previous Version | Text Only | Print | Product List | Glossary Off
Versions: 1 2 3 4 5 6 7 8 9 10 11 12 13 14 15 16 17 18 19 20 21 22 23 24 25 26 27 28 29 30 31 32 33 34

000
FTUS43 KGRB 010539
TAFGRB
TAF
KGRB 010539Z 0106/0206 VRB03KT 3SM BR FEW015
     FM010800 VRB03KT 2SM BR FEW007 SCT015
      TEMPO 0109/0113 1/2SM FG SCT007 BKN018
     FM011300 21005KT 3SM BR BKN018
     FM011800 21008KT P6SM FEW020 SCT200
     FM020400 21004KT 4SM BR SCT200=

USA.gov is the U.S. government's official web portal to all federal, state and local government web resources and services.